Time;durP1;ratioP1;P1;durP2;ratioP2;P2;SDS_P1;SDS_P2;PMS_P1;PMS_P2;Temp;Humidity;BMP_temperature;BMP_pressure;BME280_temperature;BME280_humidity;BME280_pressure;Samples;Min_cycle;Max_cycle;Signal;HPM_P1;HPM_P2
2024/04/23 00:01:56;;;;;;;6.57;3.72;;;3.50;97.70;;;;;;5486645;26;19997;-62
2024/04/23 00:04:22;;;;;;;10.32;4.35;;;3.50;98.10;;;;;;5476110;26;20013;-63
2024/04/23 00:06:58;;;;;;;6.50;4.03;;;3.40;98.50;;;;;;5434180;26;20002;-62
2024/04/23 00:09:24;;;;;;;9.07;4.45;;;3.40;98.30;;;;;;5471868;26;20477;-62
2024/04/23 00:11:49;;;;;;;8.95;4.30;;;3.40;97.70;;;;;;5458695;26;20014;-62
2024/04/23 00:14:15;;;;;;;8.43;4.20;;;3.30;98.10;;;;;;5472543;26;20542;-63
2024/04/23 00:16:41;;;;;;;12.80;4.22;;;3.30;98.30;;;;;;5459999;26;20003;-63
2024/04/23 00:19:06;;;;;;;10.30;3.92;;;3.30;98.10;;;;;;5462751;26;20457;-62
2024/04/23 00:21:32;;;;;;;10.45;4.45;;;3.20;98.10;;;;;;5467240;26;20444;-62
2024/04/23 00:23:58;;;;;;;7.38;4.10;;;3.20;98.10;;;;;;5463477;26;19999;-63
2024/04/23 00:26:23;;;;;;;7.00;4.03;;;3.20;97.70;;;;;;5467116;26;20478;-62
2024/04/23 00:28:49;;;;;;;7.05;3.75;;;3.20;98.10;;;;;;5468054;26;20002;-65
2024/04/23 00:31:14;;;;;;;8.02;4.13;;;3.20;97.20;;;;;;5473352;26;20002;-63
2024/04/23 00:33:40;;;;;;;7.85;4.35;;;3.20;98.10;;;;;;5469140;26;20009;-62
2024/04/23 00:36:06;;;;;;;7.07;4.15;;;3.20;97.80;;;;;;5451732;26;20458;-62
2024/04/23 00:38:31;;;;;;;6.72;3.85;;;3.30;97.00;;;;;;5479337;26;20255;-62
2024/04/23 00:40:57;;;;;;;7.85;3.72;;;3.30;96.90;;;;;;5472580;26;20407;-62
2024/04/23 00:43:22;;;;;;;7.18;4.32;;;3.30;96.20;;;;;;5480923;26;20399;-63
2024/04/23 00:45:55;;;;;;;7.00;3.70;;;3.30;96.20;;;;;;5472522;26;20079;-62
2024/04/23 00:48:22;;;;;;;5.45;3.58;;;3.30;97.40;;;;;;5477039;26;20470;-62
2024/04/23 00:50:48;;;;;;;8.77;4.20;;;3.20;97.80;;;;;;5477322;26;20002;-62
2024/04/23 00:53:15;;;;;;;7.60;3.97;;;3.20;97.60;;;;;;5473808;26;20749;-62
2024/04/23 00:55:41;;;;;;;6.80;4.13;;;3.20;97.30;;;;;;5472205;26;20051;-62
2024/04/23 00:58:07;;;;;;;8.38;4.88;;;3.10;97.30;;;;;;5471272;26;19998;-62
2024/04/23 01:00:33;;;;;;;14.20;4.53;;;3.10;98.00;;;;;;5484790;26;20001;-62
2024/04/23 01:02:58;;;;;;;6.70;4.50;;;3.10;98.10;;;;;;5508812;25;19998;-62
2024/04/23 01:05:24;;;;;;;9.13;4.28;;;3.10;97.90;;;;;;5467777;26;20018;-62
2024/04/23 01:07:50;;;;;;;8.90;4.95;;;3.10;98.40;;;;;;5475659;26;20011;-63
2024/04/23 01:10:16;;;;;;;7.03;4.32;;;3.00;98.60;;;;;;5431195;26;19999;-63
2024/04/23 01:12:42;;;;;;;7.75;3.63;;;3.00;98.10;;;;;;5478778;26;20017;-64
2024/04/23 01:15:09;;;;;;;8.70;4.40;;;3.10;97.10;;;;;;5450697;26;20429;-62
2024/04/23 01:17:39;;;;;;;8.88;4.30;;;3.10;96.70;;;;;;5465411;26;20773;-62
2024/04/23 01:20:09;;;;;;;5.75;3.75;;;3.10;97.50;;;;;;5479526;26;20044;-62
2024/04/23 01:22:43;;;;;;;8.13;4.13;;;3.00;97.30;;;;;;5490116;26;20011;-62
2024/04/23 01:25:21;;;;;;;7.10;4.05;;;3.00;97.80;;;;;;5437197;26;20030;-62
2024/04/23 01:27:48;;;;;;;7.63;4.20;;;3.00;98.40;;;;;;5475068;26;20010;-62
2024/04/23 01:30:16;;;;;;;8.63;4.47;;;2.90;98.10;;;;;;5477408;26;20048;-62
2024/04/23 01:32:44;;;;;;;7.95;4.00;;;2.90;98.10;;;;;;5477151;26;20272;-63
2024/04/23 01:35:10;;;;;;;7.03;4.40;;;2.90;98.40;;;;;;5476596;26;19999;-63
2024/04/23 01:37:39;;;;;;;7.28;3.75;;;2.80;98.80;;;;;;5477666;26;20010;-62
2024/04/23 01:40:07;;;;;;;14.50;5.30;;;2.70;99.20;;;;;;5476853;26;20013;-62
2024/04/23 01:42:33;;;;;;;8.57;4.20;;;2.70;99.40;;;;;;5456600;26;20051;-62
2024/04/23 01:44:59;;;;;;;6.43;3.92;;;2.60;99.50;;;;;;5473800;26;20010;-62
2024/04/23 01:47:25;;;;;;;7.07;4.30;;;2.60;99.70;;;;;;5469900;26;19999;-62
2024/04/23 01:49:54;;;;;;;8.15;4.28;;;2.50;99.60;;;;;;5474295;26;20002;-62
2024/04/23 01:52:20;;;;;;;6.93;3.70;;;2.50;99.00;;;;;;5469378;26;20589;-62
2024/04/23 01:54:46;;;;;;;7.43;4.30;;;2.50;98.90;;;;;;5471458;26;19999;-62
2024/04/23 01:57:11;;;;;;;7.70;4.18;;;2.60;99.10;;;;;;5469439;26;20017;-62
2024/04/23 01:59:46;;;;;;;7.38;3.80;;;2.60;99.40;;;;;;5472905;26;20003;-62
2024/04/23 02:02:12;;;;;;;7.88;3.97;;;2.50;98.80;;;;;;5461845;26;20066;-62
2024/04/23 02:04:39;;;;;;;6.43;3.85;;;2.50;98.60;;;;;;5498034;25;20011;-62
2024/04/23 02:07:06;;;;;;;9.57;4.55;;;2.50;98.80;;;;;;5502313;25;20279;-63
2024/04/23 02:09:33;;;;;;;7.20;4.22;;;2.40;98.20;;;;;;5502053;25;20035;-62
2024/04/23 02:12:01;;;;;;;8.45;4.05;;;2.40;98.60;;;;;;5512633;25;19997;-62
2024/04/23 02:14:26;;;;;;;9.13;3.85;;;2.30;98.70;;;;;;5497967;26;19994;-63
2024/04/23 02:16:52;;;;;;;9.32;4.47;;;2.30;98.40;;;;;;5513118;26;20004;-63
2024/04/23 02:19:18;;;;;;;6.80;3.60;;;2.30;98.90;;;;;;5509716;25;20548;-62
2024/04/23 02:21:43;;;;;;;6.00;3.83;;;2.30;98.70;;;;;;5505240;25;20035;-63
2024/04/23 02:24:09;;;;;;;5.88;3.63;;;2.30;98.60;;;;;;5514550;25;20004;-62
2024/04/23 02:26:34;;;;;;;6.65;3.90;;;2.30;99.00;;;;;;5502193;25;19993;-62
2024/04/23 02:29:00;;;;;;;7.40;4.53;;;2.20;99.10;;;;;;5501830;25;20484;-62
2024/04/23 02:31:25;;;;;;;13.13;4.15;;;2.30;99.80;;;;;;5509215;25;19993;-62
2024/04/23 02:33:51;;;;;;;7.03;4.50;;;2.20;99.40;;;;;;5509369;26;19998;-62
2024/04/23 02:36:16;;;;;;;7.80;3.85;;;2.20;99.50;;;;;;5479928;26;20016;-62
2024/04/23 02:38:42;;;;;;;8.25;3.97;;;2.20;99.00;;;;;;5503807;26;20013;-63
2024/04/23 02:41:08;;;;;;;9.20;3.85;;;2.10;98.80;;;;;;5504983;25;20002;-63
2024/04/23 02:43:33;;;;;;;6.30;3.55;;;2.10;98.60;;;;;;5512013;25;20005;-62
2024/04/23 02:45:59;;;;;;;10.43;4.57;;;2.00;98.90;;;;;;5510950;25;20010;-62
2024/04/23 02:48:24;;;;;;;9.27;4.50;;;2.00;99.20;;;;;;5502035;25;20047;-63
2024/04/23 02:50:50;;;;;;;11.95;4.72;;;2.00;99.90;;;;;;5507706;25;19997;-62
2024/04/23 02:53:15;;;;;;;8.40;4.22;;;1.90;99.50;;;;;;5466576;26;19994;-62
2024/04/23 02:55:41;;;;;;;8.02;4.20;;;1.90;99.50;;;;;;5511232;25;19998;-63
2024/04/23 02:58:06;;;;;;;7.82;4.38;;;1.90;99.70;;;;;;5481283;26;20792;-61
2024/04/23 03:00:32;;;;;;;7.30;4.38;;;1.90;99.90;;;;;;5504453;25;20095;-62
2024/04/23 03:02:58;;;;;;;8.02;4.13;;;2.00;99.90;;;;;;5509580;26;20025;-62
2024/04/23 03:05:23;;;;;;;6.15;4.05;;;1.90;99.40;;;;;;5477434;25;19994;-62
2024/04/23 03:07:49;;;;;;;8.95;4.68;;;1.90;98.80;;;;;;5515699;25;20016;-62
2024/04/23 03:10:14;;;;;;;7.30;4.13;;;1.90;98.90;;;;;;5505719;25;19990;-62
2024/04/23 03:12:40;;;;;;;6.38;3.78;;;1.80;98.90;;;;;;5513240;25;20033;-63
2024/04/23 03:15:06;;;;;;;7.13;3.70;;;1.90;98.80;;;;;;5508135;25;21059;-62
2024/04/23 03:17:31;;;;;;;7.57;4.55;;;1.80;98.30;;;;;;5514459;25;19998;-63
2024/04/23 03:19:57;;;;;;;8.85;4.35;;;1.80;99.20;;;;;;5510108;25;19994;-62
2024/04/23 03:22:22;;;;;;;9.93;4.70;;;1.80;99.60;;;;;;5493021;25;20009;-62
2024/04/23 03:24:48;;;;;;;9.25;4.70;;;1.80;99.90;;;;;;5503402;25;20388;-62
2024/04/23 03:27:13;;;;;;;6.63;4.18;;;1.80;99.90;;;;;;5508947;25;20052;-62
2024/04/23 03:29:39;;;;;;;10.00;4.60;;;1.80;99.30;;;;;;5480230;25;20000;-62
2024/04/23 03:32:05;;;;;;;11.82;5.38;;;1.80;99.80;;;;;;5512530;25;20004;-62
2024/04/23 03:34:31;;;;;;;9.25;4.68;;;1.80;99.90;;;;;;5511276;26;20913;-62
2024/04/23 03:36:57;;;;;;;8.07;4.85;;;1.80;99.90;;;;;;5504146;25;20053;-62
2024/04/23 03:39:23;;;;;;;10.27;4.90;;;1.80;99.90;;;;;;5506426;25;20459;-62
2024/04/23 03:41:59;;;;;;;8.65;4.47;;;1.80;99.90;;;;;;5503276;25;20001;-62
2024/04/23 03:44:28;;;;;;;10.25;4.32;;;1.80;99.40;;;;;;5506040;25;20010;-62
2024/04/23 03:46:55;;;;;;;10.95;4.25;;;1.70;99.60;;;;;;5510300;25;20434;-63
2024/04/23 03:49:21;;;;;;;8.57;3.92;;;1.70;99.20;;;;;;5507795;25;20726;-62
2024/04/23 03:51:46;;;;;;;6.80;3.60;;;1.70;99.00;;;;;;5507195;25;20005;-62
2024/04/23 03:54:12;;;;;;;8.32;3.97;;;1.70;99.40;;;;;;5503537;25;20043;-62
2024/04/23 03:56:38;;;;;;;8.38;4.40;;;1.70;99.60;;;;;;5502893;25;20018;-63
2024/04/23 03:59:03;;;;;;;13.15;5.00;;;1.70;99.20;;;;;;5513000;25;20056;-63
2024/04/23 04:01:29;;;;;;;6.15;3.75;;;1.60;99.40;;;;;;5476955;26;20081;-61
2024/04/23 04:06:39;;;;;;;8.57;4.55;;;1.60;99.90;;;;;;5498722;25;20069;-66
2024/04/23 04:09:04;;;;;;;12.52;4.47;;;1.60;99.90;;;;;;5500815;25;20002;-67
2024/04/23 04:11:35;;;;;;;9.10;4.05;;;1.60;99.90;;;;;;5493544;26;20009;-64
2024/04/23 04:14:01;;;;;;;7.43;4.10;;;1.60;99.90;;;;;;5463565;26;20012;-65
2024/04/23 04:16:28;;;;;;;7.75;4.47;;;1.60;99.90;;;;;;5507802;25;20531;-65
2024/04/23 04:18:54;;;;;;;10.80;4.90;;;1.60;99.90;;;;;;5511779;25;20074;-66
2024/04/23 04:21:20;;;;;;;9.20;4.20;;;1.60;99.90;;;;;;5509138;25;19997;-66
2024/04/23 04:23:46;;;;;;;10.38;4.28;;;1.60;99.90;;;;;;5509123;25;20677;-66
2024/04/23 04:26:13;;;;;;;7.80;3.90;;;1.60;99.90;;;;;;5501452;25;20004;-66
2024/04/23 04:28:42;;;;;;;7.82;3.97;;;1.60;99.80;;;;;;5508751;25;20029;-68
2024/04/23 04:31:08;;;;;;;13.25;4.53;;;1.60;99.50;;;;;;5498519;25;20093;-65
2024/04/23 04:33:34;;;;;;;8.65;4.47;;;1.60;99.90;;;;;;5517981;26;19994;-66
2024/04/23 04:36:00;;;;;;;11.80;4.90;;;1.70;99.90;;;;;;5503084;25;20001;-66
2024/04/23 04:38:25;;;;;;;8.50;4.25;;;1.80;99.90;;;;;;5507597;25;19998;-65
2024/04/23 04:40:52;;;;;;;6.30;4.28;;;1.70;99.90;;;;;;5514665;25;20041;-66
2024/04/23 04:43:17;;;;;;;7.78;4.80;;;1.70;99.90;;;;;;5518571;26;20001;-66
2024/04/23 04:45:43;;;;;;;7.32;3.65;;;1.80;99.90;;;;;;5513122;25;20654;-65
2024/04/23 04:48:09;;;;;;;9.30;4.55;;;1.70;99.70;;;;;;5499152;25;19997;-65
2024/04/23 04:50:35;;;;;;;10.18;4.35;;;1.70;99.40;;;;;;5507351;26;20013;-65
2024/04/23 04:53:00;;;;;;;8.45;4.28;;;1.80;99.50;;;;;;5515426;25;20012;-67
2024/04/23 04:55:29;;;;;;;10.25;4.68;;;1.80;99.40;;;;;;5480968;25;20018;-65
2024/04/23 04:57:54;;;;;;;9.15;4.55;;;1.90;99.20;;;;;;5466525;26;20013;-65
2024/04/23 05:00:20;;;;;;;8.23;4.25;;;1.90;99.70;;;;;;5473875;26;20003;-66
2024/04/23 05:02:45;;;;;;;8.05;4.63;;;1.90;99.90;;;;;;5467088;26;19999;-66
2024/04/23 05:05:11;;;;;;;8.00;4.43;;;2.00;99.90;;;;;;5480166;26;20370;-66
2024/04/23 05:07:37;;;;;;;9.77;4.90;;;2.10;99.90;;;;;;5464198;26;20013;-67
2024/04/23 05:10:03;;;;;;;10.30;5.53;;;2.10;99.90;;;;;;5468608;26;19998;-66
2024/04/23 05:12:29;;;;;;;12.52;5.47;;;2.10;99.90;;;;;;5487336;26;20012;-65
2024/04/23 05:14:54;;;;;;;10.35;5.82;;;2.20;99.70;;;;;;5514541;25;19997;-68
2024/04/23 05:17:21;;;;;;;10.35;5.50;;;2.20;99.40;;;;;;5506541;26;20082;-64
2024/04/23 05:19:47;;;;;;;11.35;5.95;;;2.30;99.30;;;;;;5480274;26;19999;-66
2024/04/23 05:22:13;;;;;;;23.65;6.18;;;2.40;99.20;;;;;;5468659;26;20605;-69
2024/04/23 05:24:39;;;;;;;11.20;6.18;;;2.40;99.30;;;;;;5478683;26;20009;-66
2024/04/23 05:27:04;;;;;;;11.50;5.75;;;2.50;99.90;;;;;;5448228;26;19994;-66
2024/04/23 05:29:30;;;;;;;11.65;5.57;;;2.50;99.90;;;;;;5485958;26;20021;-68
2024/04/23 05:34:40;;;;;;;10.60;5.72;;;2.70;99.90;;;;;;5470026;26;20749;-69
2024/04/23 05:37:07;;;;;;;14.88;6.03;;;2.70;99.90;;;;;;5484089;26;19997;-65
2024/04/23 05:39:32;;;;;;;11.35;5.57;;;2.80;99.90;;;;;;5501016;26;20005;-67
2024/04/23 05:41:58;;;;;;;11.63;6.10;;;2.80;99.90;;;;;;5511631;25;20010;-65
2024/04/23 05:44:24;;;;;;;9.95;5.45;;;2.90;99.90;;;;;;5498089;25;20650;-65
2024/04/23 05:46:49;;;;;;;8.77;5.47;;;3.00;99.90;;;;;;5472392;25;20836;-65
2024/04/23 05:49:52;;;;;;;11.00;6.22;;;3.00;99.90;;;;;;5504949;25;19998;-66
2024/04/23 05:52:58;;;;;;;19.27;6.68;;;3.10;99.90;;;;;;5497956;25;20042;-66
2024/04/23 05:55:40;;;;;;;25.23;6.10;;;3.20;99.90;;;;;;5473727;26;19998;-66
2024/04/23 05:58:06;;;;;;;16.30;5.88;;;3.20;99.90;;;;;;5503969;25;20012;-64
2024/04/23 06:00:33;;;;;;;16.10;6.13;;;3.30;99.90;;;;;;5472260;26;19998;-66
2024/04/23 06:02:59;;;;;;;10.27;5.38;;;3.40;99.90;;;;;;5513907;25;20009;-66
2024/04/23 06:05:24;;;;;;;10.88;6.20;;;3.50;99.90;;;;;;5517059;25;20501;-67
2024/04/23 06:07:51;;;;;;;10.52;6.10;;;3.60;99.90;;;;;;5514697;26;20066;-66
2024/04/23 06:10:17;;;;;;;11.20;6.18;;;3.70;99.90;;;;;;5517747;26;20002;-66
2024/04/23 06:12:43;;;;;;;11.05;5.65;;;3.70;99.90;;;;;;5500162;26;20012;-66
2024/04/23 06:15:08;;;;;;;11.93;6.10;;;3.80;99.90;;;;;;5499060;26;19994;-65
2024/04/23 06:17:35;;;;;;;14.00;6.05;;;3.90;99.90;;;;;;5505666;25;20713;-65
2024/04/23 06:20:05;;;;;;;14.17;5.87;;;4.00;99.90;;;;;;5500850;26;20085;-65
2024/04/23 06:22:35;;;;;;;9.23;5.22;;;4.10;99.90;;;;;;5470322;26;20211;-65
2024/04/23 06:25:02;;;;;;;15.80;6.72;;;4.20;99.90;;;;;;5501500;25;20522;-66
2024/04/23 06:27:30;;;;;;;11.30;5.80;;;4.30;99.90;;;;;;5494681;25;20078;-65
2024/04/23 06:30:07;;;;;;;9.38;5.50;;;4.40;99.90;;;;;;5479632;25;20802;-65
2024/04/23 06:32:33;;;;;;;14.75;5.57;;;4.50;99.90;;;;;;5513693;25;20072;-65
2024/04/23 06:34:59;;;;;;;11.63;5.38;;;4.60;99.90;;;;;;5510787;25;20269;-67
2024/04/23 06:37:25;;;;;;;8.27;4.72;;;4.70;99.90;;;;;;5509089;25;20001;-65
2024/04/23 06:39:50;;;;;;;14.32;5.75;;;4.80;99.90;;;;;;5504138;25;20382;-66
2024/04/23 06:42:16;;;;;;;9.20;4.85;;;5.00;99.90;;;;;;5510177;25;20013;-66
2024/04/23 06:44:41;;;;;;;8.20;4.97;;;5.00;99.90;;;;;;5509657;25;20002;-67
2024/04/23 06:47:07;;;;;;;10.32;4.95;;;5.10;99.90;;;;;;5509905;25;20005;-66
2024/04/23 06:49:33;;;;;;;11.02;4.85;;;5.20;99.90;;;;;;5504997;25;19998;-68
2024/04/23 06:51:59;;;;;;;10.07;5.00;;;5.30;99.90;;;;;;5474073;26;20013;-67
2024/04/23 06:54:25;;;;;;;10.02;4.05;;;5.40;99.80;;;;;;5506083;25;20454;-66
2024/04/23 06:56:51;;;;;;;14.50;4.63;;;5.50;99.60;;;;;;5508255;25;20476;-66
2024/04/23 06:59:16;;;;;;;9.65;4.10;;;5.50;99.20;;;;;;5509236;25;19998;-65
2024/04/23 07:01:42;;;;;;;12.32;5.10;;;5.70;99.40;;;;;;5501561;25;20002;-68
2024/04/23 07:04:08;;;;;;;13.13;4.97;;;5.80;99.60;;;;;;5505423;25;20005;-64
2024/04/23 07:06:34;;;;;;;15.82;5.75;;;5.80;99.50;;;;;;5506328;25;20743;-67
2024/04/23 07:08:59;;;;;;;12.38;5.70;;;5.90;99.40;;;;;;5475968;25;19997;-67
2024/04/23 07:11:25;;;;;;;14.55;5.25;;;6.00;99.20;;;;;;5506408;25;20069;-66
2024/04/23 07:13:51;;;;;;;13.45;6.47;;;6.10;99.40;;;;;;5508064;25;19997;-66
2024/04/23 07:16:16;;;;;;;15.80;6.25;;;6.20;99.00;;;;;;5509088;25;20007;-67
2024/04/23 07:18:42;;;;;;;16.90;6.57;;;6.20;98.70;;;;;;5507484;26;20861;-67
2024/04/23 07:21:08;;;;;;;14.07;6.28;;;6.20;98.50;;;;;;5510673;25;19997;-65
2024/04/23 07:23:34;;;;;;;16.77;6.32;;;6.30;98.60;;;;;;5513033;25;20004;-65
2024/04/23 07:26:00;;;;;;;15.02;6.65;;;6.40;98.60;;;;;;5506230;25;20628;-68
2024/04/23 07:28:25;;;;;;;20.67;6.80;;;6.50;98.50;;;;;;5515920;25;19993;-66
2024/04/23 07:30:51;;;;;;;12.00;5.57;;;6.50;98.30;;;;;;5476260;26;20004;-65
2024/04/23 07:33:18;;;;;;;13.38;5.63;;;6.60;98.50;;;;;;5498488;26;19998;-66
2024/04/23 07:35:45;;;;;;;10.73;5.15;;;6.60;98.30;;;;;;5466861;26;20335;-66
2024/04/23 07:38:11;;;;;;;10.95;5.97;;;6.70;98.00;;;;;;5497290;25;20002;-66
2024/04/23 07:40:37;;;;;;;25.45;6.57;;;6.70;97.70;;;;;;5507655;25;20012;-66
2024/04/23 07:43:03;;;;;;;12.75;5.50;;;6.80;97.70;;;;;;5476606;25;20458;-65
2024/04/23 07:45:29;;;;;;;15.00;5.78;;;6.80;97.60;;;;;;5497307;25;19993;-65
2024/04/23 07:47:55;;;;;;;13.40;5.80;;;6.90;98.00;;;;;;5506549;25;20342;-68
2024/04/23 07:50:21;;;;;;;10.00;5.80;;;6.90;97.60;;;;;;5506731;25;20521;-66
2024/04/23 07:52:47;;;;;;;22.25;5.97;;;7.00;97.50;;;;;;5508244;25;19997;-65
2024/04/23 07:55:12;;;;;;;12.02;4.82;;;7.00;97.20;;;;;;5501184;25;19994;-67
2024/04/23 07:57:42;;;;;;;10.75;5.10;;;7.00;97.20;;;;;;5497707;26;20013;-65
2024/04/23 08:00:08;;;;;;;15.50;5.90;;;7.10;97.20;;;;;;5468485;26;20034;-66
2024/04/23 08:02:34;;;;;;;10.23;5.45;;;7.20;97.30;;;;;;5444377;26;20050;-67
2024/04/23 08:05:00;;;;;;;9.38;4.82;;;7.30;97.60;;;;;;5510490;25;20094;-65
2024/04/23 08:07:26;;;;;;;19.67;5.07;;;7.40;96.90;;;;;;5510246;25;20001;-66
2024/04/23 08:09:52;;;;;;;22.48;5.47;;;7.50;96.90;;;;;;5503875;25;20368;-65
2024/04/23 08:12:17;;;;;;;13.95;4.85;;;7.60;96.80;;;;;;5511656;25;20523;-66
2024/04/23 08:14:43;;;;;;;14.50;5.38;;;7.60;96.20;;;;;;5514434;25;20008;-67
2024/04/23 08:17:09;;;;;;;9.90;4.43;;;7.70;96.00;;;;;;5514326;25;19989;-65
2024/04/23 08:19:35;;;;;;;15.98;4.88;;;7.70;95.90;;;;;;5473469;26;19994;-66
2024/04/23 08:22:01;;;;;;;14.27;5.25;;;7.80;95.80;;;;;;5503184;25;20357;-65
2024/04/23 08:24:26;;;;;;;14.57;5.85;;;8.00;96.00;;;;;;5504693;25;20076;-66
2024/04/23 08:26:52;;;;;;;11.18;4.93;;;8.10;96.00;;;;;;5508167;25;20528;-66
2024/04/23 08:29:17;;;;;;;7.97;4.60;;;8.10;95.80;;;;;;5505579;25;20809;-66
2024/04/23 08:31:43;;;;;;;14.70;4.68;;;8.30;95.50;;;;;;5506475;25;19993;-65
2024/04/23 08:34:08;;;;;;;9.10;4.50;;;8.50;95.70;;;;;;5476317;26;20407;-67
2024/04/23 08:36:34;;;;;;;10.73;4.97;;;8.60;95.30;;;;;;5509477;25;19993;-66
2024/04/23 08:38:59;;;;;;;10.15;5.20;;;8.80;95.20;;;;;;5507556;25;20002;-65
2024/04/23 08:41:26;;;;;;;14.43;5.20;;;9.00;94.20;;;;;;5505169;25;20025;-65
2024/04/23 08:44:08;;;;;;;11.18;4.95;;;9.10;94.00;;;;;;5510382;25;20052;-65
2024/04/23 08:46:34;;;;;;;11.95;5.03;;;9.30;94.10;;;;;;5509286;25;19994;-66
2024/04/23 08:49:00;;;;;;;8.68;4.82;;;9.50;93.80;;;;;;5481595;25;19997;-65
2024/04/23 08:51:28;;;;;;;8.23;4.03;;;9.50;93.20;;;;;;5512152;25;19997;-65
2024/04/23 08:53:53;;;;;;;12.25;4.85;;;9.50;92.90;;;;;;5474814;25;20008;-65
2024/04/23 08:56:25;;;;;;;10.27;4.72;;;9.50;92.80;;;;;;5503109;25;20001;-67
2024/04/23 08:58:51;;;;;;;10.60;4.25;;;9.50;92.90;;;;;;5512367;25;20004;-68
2024/04/23 09:01:38;;;;;;;7.85;4.25;;;9.40;92.20;;;;;;5477220;26;20077;-67
2024/04/23 09:04:05;;;;;;;9.00;4.53;;;9.20;92.10;;;;;;5497521;25;20077;-66
2024/04/23 09:06:32;;;;;;;11.80;5.10;;;9.20;92.50;;;;;;5506621;25;20020;-65
2024/04/23 09:08:58;;;;;;;10.63;4.75;;;9.00;91.90;;;;;;5509049;25;20016;-66
2024/04/23 09:11:27;;;;;;;10.23;5.03;;;8.90;92.20;;;;;;5512453;25;20902;-65
2024/04/23 09:13:56;;;;;;;7.43;4.47;;;8.90;92.10;;;;;;5499227;25;20002;-65
2024/04/23 09:16:28;;;;;;;6.97;3.88;;;8.90;91.90;;;;;;5459651;26;20014;-66
2024/04/23 09:18:54;;;;;;;13.13;4.90;;;9.00;92.20;;;;;;5504853;25;19993;-66
2024/04/23 09:21:23;;;;;;;8.90;3.88;;;9.10;92.70;;;;;;5510092;25;19997;-67
2024/04/23 09:23:49;;;;;;;7.07;3.28;;;9.10;91.60;;;;;;5508178;25;20012;-64
2024/04/23 09:26:16;;;;;;;7.85;3.67;;;9.10;90.90;;;;;;5507968;25;20374;-66
2024/04/23 09:28:44;;;;;;;4.70;3.20;;;9.20;90.80;;;;;;5503243;25;20021;-65
2024/04/23 09:31:15;;;;;;;;;;;9.40;90.80;;;;;;5506788;25;20787;-66
2024/04/23 09:33:54;;;;;;;7.32;3.90;;;9.60;90.50;;;;;;5507449;25;19923;-68
2024/04/23 09:36:24;;;;;;;7.15;3.83;;;9.70;90.00;;;;;;5500898;25;20591;-65
2024/04/23 09:38:54;;;;;;;7.78;3.42;;;9.70;90.20;;;;;;5513130;25;19997;-65
2024/04/23 09:41:20;;;;;;;8.48;4.03;;;9.70;90.20;;;;;;5509966;25;20001;-65
2024/04/23 09:43:57;;;;;;;6.47;3.67;;;9.70;90.30;;;;;;5511683;25;20489;-65
2024/04/23 09:46:23;;;;;;;9.50;3.53;;;9.70;90.10;;;;;;5476129;26;20069;-66
2024/04/23 09:48:50;;;;;;;17.40;4.65;;;9.70;89.40;;;;;;5507119;26;20013;-65
2024/04/23 09:51:19;;;;;;;7.38;3.80;;;9.70;89.90;;;;;;5504878;25;20005;-66
2024/04/23 09:53:44;;;;;;;;;;;9.80;90.30;;;;;;5505681;25;20005;-65
2024/04/23 09:56:12;;;;;;;10.02;3.92;;;9.80;90.50;;;;;;5502543;25;20269;-66
2024/04/23 09:58:38;;;;;;;;;;;9.90;90.80;;;;;;5500567;25;20014;-66
2024/04/23 10:01:05;;;;;;;7.63;4.25;;;9.90;90.40;;;;;;5506572;25;19930;-66
2024/04/23 10:03:34;;;;;;;6.88;3.95;;;9.50;89.40;;;;;;5508357;25;19998;-66
2024/04/23 10:06:04;;;;;;;5.25;3.58;;;9.50;89.30;;;;;;5509130;25;21992;-66
2024/04/23 10:08:35;;;;;;;9.50;4.40;;;9.60;90.00;;;;;;5507020;25;20609;-66
2024/04/23 10:11:01;;;;;;;7.68;3.28;;;9.50;90.20;;;;;;5497261;25;20004;-65
2024/04/23 10:13:42;;;;;;;6.78;3.92;;;9.50;90.40;;;;;;5511204;25;19989;-66
2024/04/23 10:16:37;;;;;;;9.10;4.10;;;9.60;90.90;;;;;;5507996;25;20324;-65
2024/04/23 10:19:06;;;;;;;9.15;4.47;;;9.50;91.10;;;;;;5484757;25;20433;-66
2024/04/23 10:21:39;;;;;;;8.77;5.28;;;9.60;91.20;;;;;;5473294;25;20005;-65
2024/04/23 10:24:08;;;;;;;9.15;4.28;;;9.70;91.20;;;;;;5502580;25;20102;-65
2024/04/23 10:26:40;;;;;;;10.02;4.72;;;9.70;91.20;;;;;;5513114;25;20002;-65
2024/04/23 10:29:07;;;;;;;7.05;4.05;;;9.80;91.60;;;;;;5507188;25;19993;-66
2024/04/23 10:31:33;;;;;;;7.43;4.43;;;9.70;91.10;;;;;;5505305;26;20009;-66
2024/04/23 10:34:02;;;;;;;7.70;3.80;;;9.80;91.10;;;;;;5478074;26;20012;-66
2024/04/23 10:36:28;;;;;;;7.63;4.32;;;9.80;90.80;;;;;;5504824;25;20041;-65
2024/04/23 10:38:58;;;;;;;5.32;3.70;;;9.80;91.10;;;;;;5507253;25;20024;-66
2024/04/23 10:41:24;;;;;;;7.35;3.75;;;9.70;90.90;;;;;;5511755;25;20045;-65
2024/04/23 10:43:53;;;;;;;6.38;3.75;;;9.70;90.70;;;;;;5508685;25;19998;-65
2024/04/23 10:46:19;;;;;;;10.73;4.15;;;9.80;90.70;;;;;;5507482;25;20005;-67
2024/04/23 10:48:55;;;;;;;7.95;3.90;;;9.80;90.50;;;;;;5512814;25;20098;-66
2024/04/23 10:51:22;;;;;;;8.07;4.03;;;9.80;90.40;;;;;;5501434;25;20041;-65
2024/04/23 10:53:48;;;;;;;9.07;4.70;;;9.90;90.70;;;;;;5509894;25;20018;-67
2024/04/23 10:56:24;;;;;;;6.65;3.97;;;10.00;90.40;;;;;;5509686;25;20676;-66
2024/04/23 10:59:03;;;;;;;8.38;4.00;;;10.20;90.40;;;;;;5505624;25;20073;-67
2024/04/23 11:01:28;;;;;;;8.73;4.53;;;10.30;89.90;;;;;;5500631;25;20009;-65
2024/04/23 11:03:55;;;;;;;13.35;4.07;;;10.40;89.60;;;;;;5502811;25;20009;-66
2024/04/23 11:06:21;;;;;;;13.10;4.28;;;10.50;89.60;;;;;;5507071;25;19997;-66
2024/04/23 11:08:50;;;;;;;5.90;3.58;;;10.50;88.60;;;;;;5505396;25;20005;-66
2024/04/23 11:11:24;;;;;;;8.98;4.13;;;10.60;88.60;;;;;;5507803;25;19998;-66
2024/04/23 11:13:57;;;;;;;9.63;3.58;;;10.70;88.90;;;;;;5505826;25;20016;-66
2024/04/23 11:16:23;;;;;;;9.32;4.55;;;10.70;86.50;;;;;;5501691;25;21300;-67
2024/04/23 11:18:52;;;;;;;8.70;3.97;;;10.70;86.80;;;;;;5504667;25;20334;-67
2024/04/23 11:21:28;;;;;;;10.38;3.60;;;10.70;85.90;;;;;;5503370;25;20085;-69
2024/04/23 11:23:56;;;;;;;7.18;3.65;;;10.60;85.50;;;;;;5505078;26;20009;-66
2024/04/23 11:26:22;;;;;;;;;;;10.40;86.00;;;;;;5501199;25;19997;-69
2024/04/23 11:28:48;;;;;;;6.07;3.67;;;10.40;87.20;;;;;;5501787;26;19964;-67
2024/04/23 11:31:13;;;;;;;9.65;4.10;;;10.40;86.90;;;;;;5501075;25;19989;-66
2024/04/23 11:33:40;;;;;;;13.07;4.45;;;10.20;86.80;;;;;;5506240;25;20085;-66
2024/04/23 11:36:07;;;;;;;8.27;4.25;;;10.30;87.10;;;;;;5500471;25;19997;-66
2024/04/23 11:38:42;;;;;;;6.35;3.50;;;10.50;87.80;;;;;;5507275;25;20004;-70
2024/04/23 11:41:14;;;;;;;6.90;3.90;;;10.60;87.70;;;;;;5504586;26;20005;-67
2024/04/23 11:43:43;;;;;;;7.20;3.63;;;10.50;86.20;;;;;;5502367;25;20339;-67
2024/04/23 11:46:13;;;;;;;6.40;3.72;;;10.80;87.20;;;;;;5505446;25;20079;-66
2024/04/23 11:48:39;;;;;;;7.82;3.97;;;10.80;84.20;;;;;;5507549;25;20009;-66
2024/04/23 11:51:06;;;;;;;5.97;4.07;;;11.00;85.70;;;;;;5473157;26;20465;-67
2024/04/23 11:53:32;;;;;;;7.68;4.20;;;10.90;84.50;;;;;;5503651;25;20081;-66
2024/04/23 11:55:58;;;;;;;5.07;3.60;;;10.90;84.20;;;;;;5499358;26;20010;-69
2024/04/23 11:58:25;;;;;;;6.03;3.95;;;10.90;84.90;;;;;;5500185;25;20002;-67
2024/04/23 12:00:54;;;;;;;6.55;3.42;;;10.80;84.60;;;;;;5501919;25;20006;-69
2024/04/23 12:03:21;;;;;;;6.68;3.78;;;10.40;82.20;;;;;;5446504;26;20774;-67
2024/04/23 12:05:48;;;;;;;7.43;3.78;;;10.30;83.60;;;;;;5473249;26;20673;-68
2024/04/23 12:08:14;;;;;;;7.63;3.72;;;10.20;83.30;;;;;;5471659;25;20470;-66
2024/04/23 12:10:43;;;;;;;6.13;3.60;;;10.10;84.50;;;;;;5504948;25;20009;-68
2024/04/23 12:13:16;;;;;;;6.03;4.05;;;10.20;85.30;;;;;;5500318;25;20002;-66
2024/04/23 12:15:42;;;;;;;6.55;3.65;;;10.30;85.70;;;;;;5503858;25;20124;-70
2024/04/23 12:18:08;;;;;;;6.80;4.00;;;10.40;86.10;;;;;;5505823;25;20001;-69
2024/04/23 12:20:33;;;;;;;5.28;3.65;;;10.50;86.10;;;;;;5507244;25;20617;-68
2024/04/23 12:23:08;;;;;;;4.43;3.65;;;10.60;86.10;;;;;;5503966;25;20430;-66
2024/04/23 12:25:34;;;;;;;9.00;4.00;;;10.70;84.80;;;;;;5473205;26;20006;-66
2024/04/23 12:28:00;;;;;;;6.30;3.83;;;10.70;85.30;;;;;;5445823;26;20009;-69
2024/04/23 12:30:25;;;;;;;8.90;4.47;;;10.80;84.20;;;;;;5470355;25;20009;-66
2024/04/23 12:32:53;;;;;;;8.82;3.72;;;11.00;84.80;;;;;;5502396;25;19997;-67
2024/04/23 12:35:20;;;;;;;;;;;11.20;85.30;;;;;;5506990;26;20078;-69
2024/04/23 12:37:45;;;;;;;9.13;3.83;;;11.20;83.10;;;;;;5509979;26;19923;-68
2024/04/23 12:40:11;;;;;;;6.43;4.13;;;11.30;83.80;;;;;;5505416;26;20102;-70
2024/04/23 12:42:38;;;;;;;5.80;3.58;;;11.40;83.20;;;;;;5474821;25;20047;-66
2024/04/23 12:45:04;;;;;;;8.88;4.25;;;11.60;83.20;;;;;;5507412;25;19997;-68
2024/04/23 12:47:30;;;;;;;8.35;4.13;;;11.70;82.80;;;;;;5509804;25;20009;-67
2024/04/23 12:49:55;;;;;;;4.93;3.70;;;11.90;83.60;;;;;;5507175;25;20010;-66
2024/04/23 12:52:21;;;;;;;8.73;4.32;;;12.30;83.50;;;;;;5509281;25;20498;-67
2024/04/23 12:54:48;;;;;;;9.27;4.45;;;12.60;82.70;;;;;;5509320;25;20030;-72
2024/04/23 12:57:14;;;;;;;7.50;4.13;;;12.80;82.10;;;;;;5509098;25;19993;-70
2024/04/23 12:59:40;;;;;;;7.20;3.97;;;12.90;81.70;;;;;;5509977;25;20028;-65